Time;durP1;ratioP1;P1;durP2;ratioP2;P2;SDS_P1;SDS_P2;PMS_P1;PMS_P2;Temp;Humidity;BMP_temperature;BMP_pressure;BME280_temperature;BME280_humidity;BME280_pressure;Samples;Min_cycle;Max_cycle;Signal;HPM_P1;HPM_P2
2022/09/18 00:01:01;;;;;;;0.80;0.80;;;11.50;99.90;;;;;;5026300;28;20219;-74
2022/09/18 00:03:28;;;;;;;1.00;1.00;;;11.50;99.90;;;;;;5028845;28;20306;-74
2022/09/18 00:05:56;;;;;;;0.82;0.82;;;11.50;99.90;;;;;;5039461;28;20199;-74
2022/09/18 00:08:23;;;;;;;0.90;0.90;;;11.50;99.90;;;;;;5021976;28;20220;-73
2022/09/18 00:10:50;;;;;;;1.00;1.00;;;11.50;99.90;;;;;;5024036;28;20203;-75
2022/09/18 00:13:17;;;;;;;1.00;1.00;;;11.50;99.90;;;;;;5023239;28;20230;-74
2022/09/18 00:15:54;;;;;;;1.00;1.00;;;11.50;99.90;;;;;;5021540;28;20195;-73
2022/09/18 00:18:21;;;;;;;0.90;0.90;;;11.50;99.90;;;;;;5028805;28;20227;-74
2022/09/18 00:20:49;;;;;;;1.10;0.98;;;11.50;99.90;;;;;;5025590;28;20204;-72
2022/09/18 00:23:16;;;;;;;0.80;0.80;;;11.50;99.90;;;;;;5031210;28;20233;-75
2022/09/18 00:25:43;;;;;;;0.75;0.75;;;11.40;99.90;;;;;;5026308;28;20621;-75
2022/09/18 00:28:12;;;;;;;1.00;1.00;;;11.40;99.90;;;;;;5028115;28;20707;-75
2022/09/18 00:30:39;;;;;;;0.82;0.82;;;11.40;99.90;;;;;;5035106;28;20199;-74
2022/09/18 00:33:08;;;;;;;1.00;1.00;;;11.30;99.90;;;;;;5035988;28;20605;-71
2022/09/18 00:35:41;;;;;;;0.90;0.90;;;11.30;99.90;;;;;;5036998;28;20203;-74
2022/09/18 00:38:08;;;;;;;0.90;0.90;;;11.30;99.90;;;;;;5049060;28;20277;-74
2022/09/18 00:40:35;;;;;;;0.90;0.90;;;11.30;99.90;;;;;;5033434;28;20199;-75
2022/09/18 00:43:17;;;;;;;1.38;0.95;;;11.30;99.90;;;;;;5033670;28;20228;-75
2022/09/18 00:45:47;;;;;;;1.00;1.00;;;11.30;99.90;;;;;;5030367;28;20192;-75
2022/09/18 00:48:17;;;;;;;1.00;1.00;;;11.30;99.90;;;;;;5026722;28;20212;-75
2022/09/18 00:50:45;;;;;;;0.80;0.80;;;11.30;99.90;;;;;;5034350;28;20207;-75
2022/09/18 00:53:12;;;;;;;0.98;0.98;;;11.20;99.90;;;;;;5031185;28;20223;-74
2022/09/18 00:55:41;;;;;;;0.90;0.90;;;11.20;99.90;;;;;;5033577;28;20657;-75
2022/09/18 00:58:09;;;;;;;0.93;0.93;;;11.20;99.90;;;;;;5045879;28;20220;-74
2022/09/18 01:00:37;;;;;;;0.90;0.90;;;11.20;99.90;;;;;;5032311;28;20222;-75
2022/09/18 01:03:05;;;;;;;1.10;1.10;;;11.10;99.90;;;;;;5049813;28;20219;-74
2022/09/18 01:05:47;;;;;;;0.95;0.95;;;10.90;99.90;;;;;;5032445;28;20622;-75
2022/09/18 01:08:29;;;;;;;0.90;0.90;;;10.80;99.90;;;;;;5031329;28;20325;-75
2022/09/18 01:11:10;;;;;;;0.80;0.80;;;10.60;99.90;;;;;;5029843;28;20283;-71
2022/09/18 01:13:46;;;;;;;0.90;0.90;;;10.60;99.90;;;;;;5028872;28;20776;-74
2022/09/18 01:16:19;;;;;;;1.20;1.10;;;10.60;99.90;;;;;;5033875;28;20621;-74
2022/09/18 01:18:55;;;;;;;0.90;0.90;;;10.60;99.90;;;;;;5029087;28;20223;-75
2022/09/18 01:21:30;;;;;;;0.90;0.90;;;10.70;99.90;;;;;;5027969;28;20681;-75
2022/09/18 01:24:32;;;;;;;1.00;1.00;;;10.70;99.90;;;;;;5030531;28;20223;-74
2022/09/18 01:27:03;;;;;;;1.10;1.10;;;10.80;99.90;;;;;;5039797;28;20273;-73
2022/09/18 01:29:45;;;;;;;1.00;1.00;;;10.80;99.90;;;;;;5033562;28;20306;-73
2022/09/18 01:32:21;;;;;;;1.10;1.10;;;10.80;99.90;;;;;;5028886;28;20200;-75
2022/09/18 01:34:55;;;;;;;1.10;1.10;;;10.70;99.90;;;;;;5029489;28;20223;-75
2022/09/18 01:37:30;;;;;;;1.02;1.02;;;10.60;99.90;;;;;;5026563;28;20718;-75
2022/09/18 01:40:06;;;;;;;1.40;1.10;;;10.60;99.90;;;;;;5027679;28;20225;-72
2022/09/18 01:42:36;;;;;;;1.00;1.00;;;10.60;99.90;;;;;;5028739;28;20194;-75
2022/09/18 01:45:09;;;;;;;1.20;1.20;;;10.50;99.90;;;;;;5025898;28;20725;-73
2022/09/18 01:47:41;;;;;;;1.00;1.00;;;10.50;99.90;;;;;;5030241;28;20234;-74
2022/09/18 01:50:10;;;;;;;1.05;1.05;;;10.50;99.90;;;;;;5030068;28;20627;-74
2022/09/18 01:52:42;;;;;;;1.10;1.10;;;10.50;99.90;;;;;;5029652;28;20227;-74
2022/09/18 01:55:16;;;;;;;0.82;0.82;;;10.60;99.90;;;;;;5027245;28;20224;-74
2022/09/18 01:57:50;;;;;;;0.93;0.93;;;10.60;99.90;;;;;;5031391;28;20591;-74
2022/09/18 02:00:20;;;;;;;0.90;0.90;;;10.70;99.90;;;;;;5029910;28;20198;-74
2022/09/18 02:02:54;;;;;;;0.80;0.80;;;10.70;99.90;;;;;;5030600;28;20191;-73
2022/09/18 02:05:27;;;;;;;1.00;1.00;;;10.70;99.90;;;;;;5027467;28;20200;-74
2022/09/18 02:08:00;;;;;;;0.88;0.88;;;10.70;99.90;;;;;;5026565;28;20212;-74
2022/09/18 02:10:32;;;;;;;1.00;1.00;;;10.70;99.90;;;;;;5030913;28;20660;-74
2022/09/18 02:13:02;;;;;;;1.00;1.00;;;10.60;99.90;;;;;;5027256;28;20308;-74
2022/09/18 02:15:35;;;;;;;0.80;0.80;;;10.50;99.90;;;;;;5029168;28;20282;-74
2022/09/18 02:18:08;;;;;;;0.80;0.80;;;10.40;99.90;;;;;;5029094;28;20287;-74
2022/09/18 02:20:37;;;;;;;0.90;0.90;;;10.30;99.90;;;;;;5030397;28;20195;-74
2022/09/18 02:23:07;;;;;;;1.05;1.05;;;10.40;99.90;;;;;;5035370;28;20223;-73
2022/09/18 02:25:42;;;;;;;0.85;0.85;;;10.40;99.90;;;;;;5032065;28;20657;-74
2022/09/18 02:28:11;;;;;;;0.80;0.80;;;10.40;99.90;;;;;;5033519;28;20299;-73
2022/09/18 02:30:41;;;;;;;0.90;0.90;;;10.40;99.90;;;;;;5039472;28;20204;-74
2022/09/18 02:33:23;;;;;;;1.00;1.00;;;10.40;99.90;;;;;;5031754;28;20227;-74
2022/09/18 02:35:56;;;;;;;1.05;1.05;;;10.40;99.90;;;;;;5029632;28;20890;-74
2022/09/18 02:38:31;;;;;;;1.20;1.20;;;10.40;99.90;;;;;;5030865;28;20223;-74
2022/09/18 02:41:05;;;;;;;0.85;0.85;;;10.40;99.90;;;;;;5031826;28;20206;-73
2022/09/18 02:43:42;;;;;;;0.90;0.90;;;10.40;99.90;;;;;;5025549;28;20249;-74
2022/09/18 02:46:19;;;;;;;1.17;1.17;;;10.50;99.90;;;;;;5029806;28;20207;-74
2022/09/18 02:48:57;;;;;;;0.93;0.93;;;10.40;99.90;;;;;;5034594;28;20750;-74
2022/09/18 02:51:32;;;;;;;0.93;0.93;;;10.40;99.90;;;;;;5063270;28;20207;-74
2022/09/18 02:54:04;;;;;;;1.05;1.05;;;10.40;99.90;;;;;;5034920;28;20222;-73
2022/09/18 02:56:38;;;;;;;0.70;0.70;;;10.40;99.90;;;;;;5041859;28;20261;-73
2022/09/18 02:59:10;;;;;;;1.00;1.00;;;10.30;99.90;;;;;;5029719;28;20231;-73
2022/09/18 03:01:42;;;;;;;0.90;0.90;;;10.30;99.90;;;;;;5031608;28;20206;-74
2022/09/18 03:04:13;;;;;;;1.00;1.00;;;10.30;99.90;;;;;;5030229;28;20219;-73
2022/09/18 03:06:40;;;;;;;1.10;1.10;;;10.20;99.90;;;;;;5030056;28;20205;-74
2022/09/18 03:09:08;;;;;;;1.00;1.00;;;10.10;99.90;;;;;;5035875;28;20719;-74
2022/09/18 03:11:35;;;;;;;1.05;1.05;;;10.00;99.90;;;;;;5033389;28;20203;-73
2022/09/18 03:14:03;;;;;;;0.98;0.98;;;9.90;99.90;;;;;;5045532;28;20216;-74
2022/09/18 03:16:30;;;;;;;1.60;1.08;;;9.90;99.90;;;;;;5043734;28;20203;-74
2022/09/18 03:18:59;;;;;;;1.00;1.00;;;9.90;99.90;;;;;;5028489;28;20578;-73
2022/09/18 03:21:26;;;;;;;1.05;1.05;;;9.90;99.90;;;;;;5029547;28;20349;-74
2022/09/18 03:23:54;;;;;;;1.10;1.10;;;10.00;99.90;;;;;;5028279;28;20265;-74
2022/09/18 03:26:21;;;;;;;1.10;1.10;;;10.00;99.90;;;;;;5029204;28;20200;-74
2022/09/18 03:28:49;;;;;;;1.00;1.00;;;10.10;99.90;;;;;;5043091;28;20285;-73
2022/09/18 03:31:16;;;;;;;1.20;1.20;;;10.10;99.90;;;;;;5030452;28;20700;-73
2022/09/18 03:33:44;;;;;;;1.25;1.25;;;10.20;99.90;;;;;;5025206;28;20269;-74
2022/09/18 03:36:12;;;;;;;1.10;1.10;;;10.20;99.90;;;;;;5029581;28;20653;-72
2022/09/18 03:38:40;;;;;;;1.08;1.08;;;10.10;99.90;;;;;;5027143;28;20242;-73
2022/09/18 03:41:07;;;;;;;1.10;1.10;;;10.10;99.90;;;;;;5030523;28;20734;-72
2022/09/18 03:43:35;;;;;;;1.13;1.13;;;10.10;99.90;;;;;;5031942;28;20225;-71
2022/09/18 03:46:02;;;;;;;1.08;1.00;;;10.10;99.90;;;;;;5028001;28;20719;-72
2022/09/18 03:48:29;;;;;;;1.15;1.15;;;10.10;99.90;;;;;;5025821;28;20216;-72
2022/09/18 03:50:56;;;;;;;0.93;0.93;;;10.00;99.90;;;;;;5029620;28;20666;-72
2022/09/18 03:53:25;;;;;;;1.10;1.10;;;10.10;99.90;;;;;;5032001;28;20297;-71
2022/09/18 03:55:52;;;;;;;1.10;1.10;;;10.00;99.90;;;;;;5038734;28;20665;-72
2022/09/18 03:58:20;;;;;;;1.02;1.02;;;10.00;99.90;;;;;;5032401;28;20245;-72
2022/09/18 04:00:47;;;;;;;0.82;0.82;;;10.00;99.90;;;;;;5050627;28;20195;-72
2022/09/18 04:03:14;;;;;;;1.00;1.00;;;10.00;99.90;;;;;;5031401;28;20235;-72
2022/09/18 04:05:41;;;;;;;1.17;1.17;;;9.80;99.90;;;;;;5036800;28;20276;-74
2022/09/18 04:08:09;;;;;;;1.00;1.00;;;9.80;99.90;;;;;;5028677;28;20222;-74
2022/09/18 04:10:37;;;;;;;1.10;1.10;;;9.80;99.90;;;;;;5037884;28;20207;-74
2022/09/18 04:13:05;;;;;;;1.13;1.13;;;9.80;99.90;;;;;;5034647;28;20250;-74
2022/09/18 04:15:32;;;;;;;1.10;1.10;;;9.90;99.90;;;;;;5033960;28;20253;-73
2022/09/18 04:18:00;;;;;;;1.00;1.00;;;9.90;99.90;;;;;;5034110;28;20815;-73
2022/09/18 04:20:27;;;;;;;1.30;1.30;;;9.90;99.90;;;;;;5046952;28;20246;-74
2022/09/18 04:22:55;;;;;;;0.90;0.90;;;10.00;99.90;;;;;;5029603;28;20261;-74
2022/09/18 04:25:22;;;;;;;1.15;1.15;;;10.00;99.90;;;;;;5033811;28;20198;-74
2022/09/18 04:27:52;;;;;;;1.20;1.20;;;10.00;99.90;;;;;;5028983;28;20192;-74
2022/09/18 04:30:19;;;;;;;1.23;1.20;;;10.00;99.90;;;;;;5036016;28;20200;-74
2022/09/18 04:32:46;;;;;;;1.00;1.00;;;10.00;99.90;;;;;;5030555;28;20195;-74
2022/09/18 04:35:14;;;;;;;0.90;0.90;;;10.00;99.90;;;;;;5031962;28;20223;-74
2022/09/18 04:37:44;;;;;;;1.08;1.08;;;10.00;99.90;;;;;;5033551;28;20199;-74
2022/09/18 04:40:11;;;;;;;1.02;1.02;;;9.90;99.90;;;;;;5033848;28;20201;-74
2022/09/18 04:42:39;;;;;;;1.00;1.00;;;9.90;99.90;;;;;;5032479;28;20208;-72
2022/09/18 04:45:09;;;;;;;0.90;0.90;;;9.90;99.90;;;;;;5034517;28;20325;-73
2022/09/18 04:47:37;;;;;;;1.05;1.05;;;9.90;99.90;;;;;;5038881;28;20558;-73
2022/09/18 04:50:07;;;;;;;1.10;1.10;;;9.90;99.90;;;;;;5037911;28;20223;-73
2022/09/18 04:52:34;;;;;;;1.00;1.00;;;9.90;99.90;;;;;;5035481;28;20195;-73
2022/09/18 04:55:02;;;;;;;1.15;1.15;;;9.90;99.90;;;;;;5033061;28;20228;-73
2022/09/18 04:57:29;;;;;;;1.10;1.10;;;9.90;99.90;;;;;;5034944;28;20199;-73
2022/09/18 04:59:57;;;;;;;1.10;1.10;;;9.90;99.90;;;;;;5038161;28;20827;-73
2022/09/18 05:02:25;;;;;;;1.20;1.20;;;9.90;99.90;;;;;;5036550;28;20854;-73
2022/09/18 05:04:53;;;;;;;1.00;1.00;;;9.90;99.90;;;;;;5033804;28;20230;-72
2022/09/18 05:07:20;;;;;;;1.30;1.30;;;9.80;99.90;;;;;;5047590;28;20207;-73
2022/09/18 05:09:47;;;;;;;1.13;1.13;;;9.80;99.90;;;;;;5033770;28;20223;-72
2022/09/18 05:12:14;;;;;;;1.30;1.30;;;9.60;99.90;;;;;;5037563;28;20318;-74
2022/09/18 05:14:41;;;;;;;1.10;1.10;;;9.50;99.90;;;;;;5032714;28;20617;-74
2022/09/18 05:17:09;;;;;;;1.25;1.25;;;9.50;99.90;;;;;;5033280;28;20208;-74
2022/09/18 05:19:37;;;;;;;1.05;1.05;;;9.40;99.90;;;;;;5037042;28;20214;-73
2022/09/18 05:22:05;;;;;;;1.25;1.25;;;9.50;99.90;;;;;;5029663;28;20257;-73
2022/09/18 05:24:32;;;;;;;1.40;1.40;;;9.50;99.90;;;;;;5029251;28;20223;-73
2022/09/18 05:26:59;;;;;;;1.13;1.13;;;9.60;99.90;;;;;;5030141;28;20215;-74
2022/09/18 05:29:26;;;;;;;1.10;1.10;;;9.60;99.90;;;;;;5032260;28;20215;-74
2022/09/18 05:31:54;;;;;;;1.08;1.08;;;9.60;99.90;;;;;;5037156;28;20265;-74
2022/09/18 05:34:21;;;;;;;1.10;1.10;;;9.60;99.90;;;;;;5048940;28;20288;-74
2022/09/18 05:36:50;;;;;;;1.20;1.20;;;9.60;99.90;;;;;;5030980;28;20235;-73
2022/09/18 05:39:17;;;;;;;1.27;1.20;;;9.70;99.90;;;;;;5031372;28;20224;-73
2022/09/18 05:41:45;;;;;;;1.38;1.38;;;9.90;99.90;;;;;;5048996;28;20720;-73
2022/09/18 05:44:12;;;;;;;1.40;1.40;;;10.30;99.90;;;;;;5035799;28;20626;-74
2022/09/18 05:46:39;;;;;;;0.90;0.90;;;10.90;99.90;;;;;;5030587;28;20192;-74
2022/09/18 05:49:07;;;;;;;1.30;1.30;;;11.50;99.90;;;;;;5031779;28;20903;-74
2022/09/18 05:51:34;;;;;;;1.27;1.27;;;12.10;99.90;;;;;;5030206;28;20281;-74
2022/09/18 05:54:03;;;;;;;1.15;1.15;;;12.70;99.90;;;;;;5027797;28;20219;-74
2022/09/18 05:56:30;;;;;;;0.90;0.90;;;13.20;99.90;;;;;;5027212;28;20200;-74
2022/09/18 05:58:58;;;;;;;1.10;1.10;;;13.40;99.90;;;;;;5028520;28;20230;-74
2022/09/18 06:01:25;;;;;;;1.60;1.00;;;13.60;99.90;;;;;;5030024;28;20219;-74
2022/09/18 06:03:52;;;;;;;1.08;1.08;;;13.90;99.90;;;;;;5046170;28;20233;-74
2022/09/18 06:06:19;;;;;;;0.93;0.93;;;14.20;99.90;;;;;;5030753;28;20217;-74
2022/09/18 06:08:46;;;;;;;0.90;0.90;;;14.40;99.90;;;;;;5034327;28;20230;-74
2022/09/18 06:11:15;;;;;;;0.90;0.90;;;14.60;99.90;;;;;;5028658;28;20649;-74
2022/09/18 06:13:43;;;;;;;0.80;0.80;;;14.90;99.90;;;;;;5028451;28;20366;-74
2022/09/18 06:16:10;;;;;;;0.90;0.90;;;15.20;99.90;;;;;;5030452;28;20195;-74
2022/09/18 06:18:37;;;;;;;0.90;0.90;;;15.30;99.90;;;;;;5031820;28;20262;-76
2022/09/18 06:21:05;;;;;;;0.75;0.75;;;15.50;99.90;;;;;;5031200;28;20619;-75
2022/09/18 06:23:32;;;;;;;0.90;0.90;;;15.70;99.90;;;;;;5036967;28;20224;-75
2022/09/18 06:26:00;;;;;;;0.90;0.90;;;15.90;99.90;;;;;;5032144;28;20196;-76
2022/09/18 06:28:31;;;;;;;0.95;0.95;;;16.00;99.90;;;;;;5033973;28;20226;-76
2022/09/18 06:30:59;;;;;;;0.75;0.75;;;16.10;99.90;;;;;;5029942;28;20285;-76
2022/09/18 06:33:28;;;;;;;0.98;0.98;;;16.30;99.90;;;;;;5028510;28;20230;-76
2022/09/18 06:35:55;;;;;;;0.98;0.98;;;16.30;99.90;;;;;;5030987;28;20875;-76
2022/09/18 06:38:23;;;;;;;0.80;0.80;;;16.40;99.90;;;;;;5031817;28;20746;-76
2022/09/18 06:40:50;;;;;;;0.90;0.90;;;16.60;99.90;;;;;;5041497;28;20652;-76
2022/09/18 06:43:19;;;;;;;0.73;0.70;;;16.80;99.90;;;;;;5028607;28;20700;-76
2022/09/18 06:45:53;;;;;;;1.10;0.70;;;16.80;99.90;;;;;;5024608;28;20202;-75
2022/09/18 06:48:20;;;;;;;0.80;0.80;;;17.00;99.90;;;;;;5013753;28;20302;-77
2022/09/18 06:50:52;;;;;;;0.90;0.90;;;17.20;99.90;;;;;;5026170;28;20573;-76
2022/09/18 06:53:20;;;;;;;0.73;0.73;;;17.40;99.90;;;;;;5023501;28;20314;-72
2022/09/18 06:55:48;;;;;;;0.90;0.90;;;17.50;99.90;;;;;;5025301;28;20509;-72
2022/09/18 06:58:16;;;;;;;1.85;0.90;;;17.50;99.90;;;;;;5026590;28;20561;-73
2022/09/18 07:00:43;;;;;;;0.80;0.80;;;17.30;99.90;;;;;;5025522;28;20261;-73
2022/09/18 07:03:13;;;;;;;0.70;0.70;;;17.20;99.90;;;;;;5028224;28;20261;-73
2022/09/18 07:05:44;;;;;;;0.60;0.60;;;17.40;99.90;;;;;;5025675;28;20466;-71
2022/09/18 07:08:12;;;;;;;0.70;0.70;;;17.40;99.90;;;;;;5024796;28;20638;-73
2022/09/18 07:10:39;;;;;;;1.27;0.70;;;17.60;99.90;;;;;;5026416;28;20633;-73
2022/09/18 07:13:07;;;;;;;0.70;0.70;;;17.50;99.90;;;;;;5024584;28;20429;-73
2022/09/18 07:15:35;;;;;;;0.70;0.70;;;17.40;99.90;;;;;;5025301;28;20214;-73
2022/09/18 07:18:05;;;;;;;0.82;0.82;;;17.30;99.90;;;;;;5022777;28;20439;-73
2022/09/18 07:20:34;;;;;;;0.70;0.70;;;17.30;99.90;;;;;;5023994;28;20211;-74
2022/09/18 07:23:02;;;;;;;0.77;0.70;;;17.40;99.90;;;;;;5023147;28;20230;-73
2022/09/18 07:25:31;;;;;;;0.65;0.65;;;17.40;99.90;;;;;;5021618;28;20198;-72
2022/09/18 07:28:04;;;;;;;0.60;0.60;;;17.60;99.90;;;;;;5024837;28;20490;-74
2022/09/18 07:30:31;;;;;;;0.60;0.60;;;17.80;99.90;;;;;;5028087;28;20253;-73
2022/09/18 07:32:58;;;;;;;0.63;0.60;;;18.20;99.90;;;;;;5027243;28;20199;-74
2022/09/18 07:35:26;;;;;;;0.57;0.57;;;18.50;99.90;;;;;;5028784;28;20231;-73
2022/09/18 07:37:58;;;;;;;3.15;0.73;;;18.50;99.90;;;;;;5043139;28;20204;-74
2022/09/18 07:40:25;;;;;;;0.60;0.60;;;18.70;99.90;;;;;;5026748;28;20751;-73
2022/09/18 07:42:52;;;;;;;0.80;0.80;;;18.80;99.90;;;;;;5044889;28;20210;-73
2022/09/18 07:45:20;;;;;;;1.10;0.50;;;19.10;99.90;;;;;;5027237;28;20661;-73
2022/09/18 07:47:47;;;;;;;0.70;0.70;;;19.40;99.90;;;;;;5026986;28;20203;-73
2022/09/18 07:50:15;;;;;;;0.60;0.60;;;19.50;99.90;;;;;;5028983;28;20211;-74
2022/09/18 07:52:49;;;;;;;0.60;0.60;;;19.40;99.90;;;;;;5040298;28;20665;-73
2022/09/18 07:55:19;;;;;;;1.00;0.75;;;19.30;99.90;;;;;;5028747;28;20227;-74
2022/09/18 07:57:47;;;;;;;0.52;0.52;;;19.20;99.90;;;;;;5027473;28;20204;-73
2022/09/18 08:00:15;;;;;;;0.50;0.50;;;19.20;99.90;;;;;;5026501;28;20202;-73
2022/09/18 08:02:42;;;;;;;0.70;0.70;;;19.20;99.90;;;;;;5025132;28;20597;-73
2022/09/18 08:05:10;;;;;;;0.73;0.65;;;19.10;99.90;;;;;;5027743;28;20227;-74
2022/09/18 08:07:37;;;;;;;0.65;0.65;;;19.40;99.90;;;;;;5027908;28;20257;-73
2022/09/18 08:10:06;;;;;;;0.80;0.80;;;19.50;99.90;;;;;;5045534;28;20203;-74
2022/09/18 08:12:35;;;;;;;1.30;0.70;;;19.50;99.90;;;;;;5029616;28;20196;-74
2022/09/18 08:15:02;;;;;;;0.73;0.73;;;19.70;99.90;;;;;;5028618;28;20309;-74
2022/09/18 08:17:29;;;;;;;0.50;0.50;;;19.60;99.90;;;;;;5029559;28;20195;-74
2022/09/18 08:19:57;;;;;;;0.60;0.60;;;19.60;99.90;;;;;;5029890;28;20228;-74
2022/09/18 08:22:24;;;;;;;0.47;0.47;;;19.40;99.90;;;;;;5031459;28;20195;-74
2022/09/18 08:24:51;;;;;;;2.08;0.70;;;19.30;99.90;;;;;;5032089;28;20724;-73
2022/09/18 08:27:19;;;;;;;1.23;0.57;;;19.30;99.90;;;;;;5033832;28;20199;-74
2022/09/18 08:29:47;;;;;;;0.88;0.88;;;19.30;99.90;;;;;;5030225;28;20215;-75
2022/09/18 08:32:16;;;;;;;0.77;0.77;;;19.40;99.90;;;;;;5030822;28;20226;-74
2022/09/18 08:34:43;;;;;;;0.60;0.60;;;19.60;99.90;;;;;;5030191;28;20289;-75
2022/09/18 08:37:10;;;;;;;1.00;0.80;;;19.80;99.90;;;;;;5029371;28;20210;-73
2022/09/18 08:39:37;;;;;;;0.52;0.52;;;20.00;99.90;;;;;;5031004;28;20258;-74
2022/09/18 08:42:17;;;;;;;0.40;0.40;;;20.40;99.90;;;;;;5031143;28;20200;-74
2022/09/18 08:44:51;;;;;;;0.70;0.70;;;20.40;99.90;;;;;;5045791;28;20710;-74
2022/09/18 08:47:25;;;;;;;0.60;0.60;;;20.40;99.90;;;;;;5026637;28;20226;-72
2022/09/18 08:49:57;;;;;;;0.52;0.52;;;20.10;99.90;;;;;;5043922;28;20230;-73
2022/09/18 08:52:29;;;;;;;0.60;0.60;;;20.20;99.90;;;;;;5031687;28;20218;-72
2022/09/18 08:55:01;;;;;;;0.50;0.50;;;20.40;99.90;;;;;;5029188;28;20219;-73
2022/09/18 08:57:33;;;;;;;0.55;0.55;;;20.50;99.90;;;;;;5031639;28;20204;-73
2022/09/18 09:00:08;;;;;;;0.50;0.50;;;20.80;99.90;;;;;;5027980;28;20231;-74
2022/09/18 09:02:40;;;;;;;0.50;0.50;;;20.90;99.90;;;;;;5030827;28;20195;-74
2022/09/18 09:05:11;;;;;;;0.60;0.60;;;20.80;99.90;;;;;;5030530;28;20231;-74
2022/09/18 09:07:52;;;;;;;0.50;0.50;;;20.70;99.90;;;;;;5030988;28;20575;-74
2022/09/18 09:10:42;;;;;;;0.50;0.50;;;20.80;99.90;;;;;;5031090;28;20215;-75
2022/09/18 09:13:43;;;;;;;0.50;0.50;;;20.90;99.90;;;;;;5030607;28;20215;-75
2022/09/18 09:16:16;;;;;;;0.50;0.50;;;21.10;99.90;;;;;;5031673;28;20215;-75
2022/09/18 09:18:56;;;;;;;0.70;0.70;;;21.10;99.90;;;;;;5029583;28;20262;-75
2022/09/18 09:21:39;;;;;;;0.50;0.50;;;21.00;99.90;;;;;;5031454;28;20199;-75
2022/09/18 09:24:21;;;;;;;0.55;0.50;;;20.70;99.90;;;;;;5028220;28;20623;-75
2022/09/18 09:26:49;;;;;;;0.60;0.60;;;20.80;99.90;;;;;;5027297;28;20200;-75
2022/09/18 09:29:21;;;;;;;0.85;0.60;;;20.90;99.90;;;;;;5028219;28;20231;-75
2022/09/18 09:31:53;;;;;;;0.68;0.50;;;21.10;99.90;;;;;;5028584;28;20572;-75
2022/09/18 09:34:25;;;;;;;0.50;0.50;;;21.30;99.90;;;;;;5045355;28;20227;-75
2022/09/18 09:36:56;;;;;;;0.77;0.50;;;21.20;99.90;;;;;;5028841;28;20232;-75
2022/09/18 09:39:29;;;;;;;0.50;0.50;;;21.30;99.90;;;;;;5030525;28;20629;-75
2022/09/18 09:42:02;;;;;;;0.45;0.45;;;21.30;99.90;;;;;;5028455;28;20203;-75
2022/09/18 09:44:37;;;;;;;0.52;0.50;;;21.10;99.80;;;;;;5030040;28;20766;-75
2022/09/18 09:47:18;;;;;;;0.50;0.50;;;21.20;99.90;;;;;;5030529;28;20195;-74
2022/09/18 09:49:55;;;;;;;0.63;0.63;;;21.50;99.80;;;;;;5026037;28;20273;-74
2022/09/18 09:52:25;;;;;;;0.43;0.43;;;21.60;99.90;;;;;;5032708;28;20238;-74
2022/09/18 09:54:57;;;;;;;0.50;0.50;;;21.70;99.90;;;;;;5028607;28;20227;-74
2022/09/18 09:57:29;;;;;;;0.60;0.60;;;21.80;99.90;;;;;;5024957;28;20628;-74
2022/09/18 10:00:08;;;;;;;0.60;0.60;;;21.90;99.90;;;;;;5028363;28;20215;-73
2022/09/18 10:02:56;;;;;;;0.60;0.60;;;21.80;98.40;;;;;;5026211;28;20210;-74
2022/09/18 10:05:29;;;;;;;0.90;0.52;;;21.80;98.90;;;;;;5027010;28;20231;-74
2022/09/18 10:08:03;;;;;;;0.75;0.50;;;21.80;99.00;;;;;;5025434;28;20285;-73
2022/09/18 10:10:39;;;;;;;0.50;0.50;;;22.00;99.40;;;;;;5027272;28;20214;-74
2022/09/18 10:13:14;;;;;;;1.48;0.80;;;21.90;98.10;;;;;;5027905;28;21864;-75
2022/09/18 10:15:43;;;;;;;0.50;0.50;;;21.80;98.80;;;;;;5030793;28;20230;-74
2022/09/18 10:18:16;;;;;;;0.50;0.50;;;22.00;98.70;;;;;;5041569;28;20219;-74
2022/09/18 10:20:46;;;;;;;0.60;0.60;;;22.00;93.90;;;;;;5026379;28;20278;-74
2022/09/18 10:23:21;;;;;;;0.65;0.50;;;21.80;95.20;;;;;;5024013;28;20227;-74
2022/09/18 10:25:53;;;;;;;0.50;0.50;;;21.60;95.80;;;;;;5023032;28;20223;-75
2022/09/18 10:28:23;;;;;;;0.50;0.50;;;21.50;96.50;;;;;;5020584;28;20274;-75
2022/09/18 10:31:00;;;;;;;0.60;0.60;;;21.40;96.70;;;;;;5024975;28;20692;-75
2022/09/18 10:33:38;;;;;;;0.73;0.50;;;21.70;96.80;;;;;;5025588;28;20223;-76
2022/09/18 10:36:25;;;;;;;0.50;0.50;;;21.70;96.80;;;;;;5025999;28;20783;-76
2022/09/18 10:38:55;;;;;;;0.50;0.50;;;21.80;96.90;;;;;;5021350;28;20350;-76
2022/09/18 10:41:33;;;;;;;0.60;0.60;;;22.10;97.20;;;;;;5030829;28;20191;-76
2022/09/18 10:44:06;;;;;;;0.40;0.40;;;22.40;96.30;;;;;;5029511;28;20301;-76
2022/09/18 10:46:34;;;;;;;0.50;0.50;;;22.50;96.00;;;;;;5030247;28;20196;-77
2022/09/18 10:49:17;;;;;;;0.50;0.50;;;22.60;95.60;;;;;;5027740;28;20748;-76
2022/09/18 10:51:44;;;;;;;0.45;0.45;;;22.40;95.40;;;;;;5041892;28;20618;-75
2022/09/18 10:54:17;;;;;;;0.50;0.50;;;22.40;96.20;;;;;;5025300;28;20223;-75
2022/09/18 10:56:44;;;;;;;0.35;0.35;;;22.40;94.50;;;;;;5027858;28;20223;-75
2022/09/18 10:59:32;;;;;;;0.75;0.60;;;22.20;95.10;;;;;;5022472;28;20696;-76
2022/09/18 11:02:01;;;;;;;0.55;0.55;;;22.20;94.30;;;;;;5025517;28;20289;-76
2022/09/18 11:04:31;;;;;;;0.50;0.50;;;22.10;94.20;;;;;;5024877;28;20219;-74
2022/09/18 11:07:02;;;;;;;0.60;0.60;;;22.20;94.80;;;;;;5028426;28;20203;-75
2022/09/18 11:09:33;;;;;;;0.50;0.50;;;22.00;94.20;;;;;;5024843;28;20223;-75
2022/09/18 11:12:02;;;;;;;0.60;0.60;;;22.10;94.60;;;;;;5030221;28;20208;-75
2022/09/18 11:14:38;;;;;;;0.60;0.60;;;22.30;94.60;;;;;;5045232;28;20223;-74
2022/09/18 11:17:06;;;;;;;0.60;0.60;;;22.20;94.50;;;;;;5029057;28;20215;-74
2022/09/18 11:19:37;;;;;;;0.40;0.40;;;22.20;93.00;;;;;;5028773;28;20226;-75
2022/09/18 11:22:07;;;;;;;1.48;0.50;;;22.30;94.10;;;;;;5044015;28;20206;-75
2022/09/18 11:24:38;;;;;;;0.60;0.60;;;22.30;94.30;;;;;;5033552;28;20226;-76
2022/09/18 11:27:23;;;;;;;0.40;0.40;;;22.70;94.20;;;;;;5028876;28;20191;-75
2022/09/18 11:29:50;;;;;;;0.50;0.50;;;22.70;92.70;;;;;;5032847;28;20223;-75
2022/09/18 11:32:24;;;;;;;0.50;0.50;;;22.50;93.10;;;;;;5025750;28;20675;-75
2022/09/18 11:34:54;;;;;;;0.40;0.40;;;22.40;93.70;;;;;;5027593;28;20227;-76
2022/09/18 11:37:30;;;;;;;0.60;0.60;;;22.50;93.90;;;;;;5031221;28;20281;-76
2022/09/18 11:40:01;;;;;;;0.47;0.47;;;22.50;94.10;;;;;;5029555;28;20227;-74
2022/09/18 11:42:30;;;;;;;0.50;0.50;;;22.70;93.90;;;;;;5030686;28;20206;-74
2022/09/18 11:45:15;;;;;;;1.65;0.63;;;22.70;93.60;;;;;;5028702;28;20227;-75
2022/09/18 11:47:47;;;;;;;0.40;0.40;;;22.80;93.70;;;;;;5030603;28;20196;-74
2022/09/18 11:50:19;;;;;;;0.50;0.50;;;23.00;93.50;;;;;;5029191;28;20207;-75
2022/09/18 11:52:53;;;;;;;0.50;0.50;;;23.10;93.30;;;;;;5047142;28;20199;-75
2022/09/18 11:55:31;;;;;;;0.50;0.50;;;23.50;94.10;;;;;;5029668;28;20258;-75
2022/09/18 11:58:02;;;;;;;0.40;0.40;;;23.40;90.70;;;;;;5027187;28;20203;-75
2022/09/18 12:00:35;;;;;;;0.40;0.40;;;23.30;93.20;;;;;;5031009;28;20208;-75
2022/09/18 12:03:17;;;;;;;1.38;0.40;;;23.60;93.30;;;;;;5028461;28;20311;-75
2022/09/18 12:05:53;;;;;;;0.40;0.40;;;23.80;92.50;;;;;;5028981;28;20549;-75
2022/09/18 12:08:44;;;;;;;0.50;0.50;;;23.70;92.20;;;;;;5024323;28;20253;-76
2022/09/18 12:11:21;;;;;;;0.40;0.40;;;23.90;93.30;;;;;;5027845;28;20208;-75
2022/09/18 12:14:03;;;;;;;0.40;0.40;;;23.90;91.60;;;;;;5031668;28;20763;-75
2022/09/18 12:16:43;;;;;;;0.47;0.47;;;23.70;90.60;;;;;;5031448;28;20399;-76
2022/09/18 12:19:16;;;;;;;0.40;0.40;;;23.80;92.10;;;;;;5032438;28;20218;-75
2022/09/18 12:21:52;;;;;;;0.60;0.60;;;23.90;92.00;;;;;;5033055;28;20282;-76
2022/09/18 12:24:19;;;;;;;0.50;0.50;;;23.90;92.00;;;;;;5032512;28;20280;-75
2022/09/18 12:26:56;;;;;;;0.55;0.55;;;23.70;92.30;;;;;;5031071;28;20653;-75
2022/09/18 12:29:39;;;;;;;0.52;0.52;;;23.70;91.70;;;;;;5031403;28;20290;-75
2022/09/18 12:32:20;;;;;;;0.50;0.50;;;23.70;90.70;;;;;;5030107;28;20234;-75
2022/09/18 12:34:56;;;;;;;0.63;0.40;;;23.80;91.50;;;;;;5028179;28;20289;-75
2022/09/18 12:37:40;;;;;;;0.60;0.60;;;24.00;90.90;;;;;;5027390;28;20222;-76
2022/09/18 12:40:34;;;;;;;0.40;0.40;;;24.00;90.00;;;;;;5031225;28;20238;-76
2022/09/18 12:43:20;;;;;;;0.50;0.50;;;24.20;90.00;;;;;;5029711;28;20454;-76
2022/09/18 12:46:10;;;;;;;0.32;0.32;;;24.10;85.50;;;;;;5028222;28;20227;-75
2022/09/18 12:48:56;;;;;;;0.30;0.30;;;23.70;85.20;;;;;;5030717;28;20246;-75
2022/09/18 12:51:36;;;;;;;0.45;0.45;;;23.60;88.40;;;;;;5030440;28;20251;-76
2022/09/18 12:54:30;;;;;;;0.50;0.50;;;23.70;90.00;;;;;;5031120;28;20758;-75
2022/09/18 12:57:12;;;;;;;0.30;0.30;;;23.60;85.30;;;;;;5030797;28;20273;-76
2022/09/18 12:59:59;;;;;;;0.40;0.40;;;23.30;86.80;;;;;;5032335;28;20215;-76
2022/09/18 13:02:43;;;;;;;0.77;0.52;;;23.50;86.20;;;;;;5032826;28;20203;-76
2022/09/18 13:05:17;;;;;;;0.47;0.47;;;23.60;85.30;;;;;;5031882;28;20285;-76
2022/09/18 13:07:51;;;;;;;0.43;0.43;;;23.30;86.30;;;;;;5046625;28;20557;-76
2022/09/18 13:10:25;;;;;;;0.90;0.50;;;23.10;84.40;;;;;;5031885;28;20199;-75